createdAt,value
2017-04-10T00:00:08.864Z,1009.5
2017-04-10T00:01:10.699Z,1009.4
2017-04-10T00:02:12.525Z,1009.4
2017-04-10T00:03:14.692Z,1009.5
2017-04-10T00:04:16.861Z,1009.4
2017-04-10T00:05:18.683Z,1009.3
2017-04-10T00:06:20.852Z,1009.4
2017-04-10T00:07:23.024Z,1009.3
2017-04-10T00:08:24.846Z,1009.3
2017-04-10T00:09:26.675Z,1009.3
2017-04-10T00:10:28.509Z,1009.3
2017-04-10T00:11:30.334Z,1009.3
2017-04-10T00:12:32.163Z,1009.3
2017-04-10T00:13:33.990Z,1009.2
2017-04-10T00:14:35.821Z,1009.3
2017-04-10T00:15:37.649Z,1009.2
2017-04-10T00:16:39.481Z,1009.2
2017-04-10T00:17:41.308Z,1009.2
2017-04-10T00:18:43.151Z,1009.2
2017-04-10T00:19:44.983Z,1009.1
2017-04-10T00:20:47.153Z,1009.2
2017-04-10T00:21:49.033Z,1009.1
2017-04-10T00:22:50.867Z,1009.1
2017-04-10T00:23:52.700Z,1009.1
2017-04-10T00:24:54.528Z,1009
2017-04-10T00:25:56.710Z,1009
2017-04-10T00:26:58.540Z,1009
2017-04-10T00:28:00.742Z,1009
2017-04-10T00:29:02.905Z,1009
2017-04-10T00:30:05.089Z,1008.9
2017-04-10T00:31:06.919Z,1008.9
2017-04-10T00:32:09.088Z,1008.9
2017-04-10T00:33:10.910Z,1008.8
2017-04-10T00:34:12.743Z,1008.8
2017-04-10T00:35:14.614Z,1008.8
2017-04-10T00:36:16.442Z,1008.8
2017-04-10T00:37:18.300Z,1008.7
2017-04-10T00:38:20.460Z,1008.8
2017-04-10T00:39:22.302Z,1008.8
2017-04-10T00:40:24.132Z,1008.7
2017-04-10T00:41:25.954Z,1008.7
2017-04-10T00:42:27.791Z,1008.6
2017-04-10T00:43:29.620Z,1008.6
2017-04-10T00:44:31.455Z,1008.6
2017-04-10T00:45:33.280Z,1008.6
2017-04-10T00:46:35.455Z,1008.5
2017-04-10T00:47:37.288Z,1008.5
2017-04-10T00:48:39.119Z,1008.5
2017-04-10T00:49:40.947Z,1008.5
2017-04-10T00:50:42.771Z,1008.5
2017-04-10T00:51:44.602Z,1008.5
2017-04-10T00:52:46.427Z,1008.4
2017-04-10T00:53:48.611Z,1008.4
2017-04-10T00:54:50.437Z,1008.4
2017-04-10T00:55:52.617Z,1008.4
2017-04-10T00:56:54.447Z,1008.3
2017-04-10T00:57:56.280Z,1008.3
2017-04-10T00:58:58.448Z,1008.3
2017-04-10T01:00:00.277Z,1008.2
2017-04-10T01:01:02.111Z,1008.3
2017-04-10T01:02:03.943Z,1008.2
2017-04-10T01:03:05.762Z,1008.3
2017-04-10T01:04:07.591Z,1008.2
2017-04-10T01:05:09.417Z,1008.2
2017-04-10T01:06:11.250Z,1008.2
2017-04-10T01:07:13.076Z,1008.2
2017-04-10T01:08:15.233Z,1008.1
2017-04-10T01:09:17.061Z,1008.1
2017-04-10T01:10:19.245Z,1008.1
2017-04-10T01:11:21.083Z,1008.1
2017-04-10T01:12:22.922Z,1008
2017-04-10T01:13:24.747Z,1008.1
2017-04-10T01:14:26.576Z,1008.1
2017-04-10T01:15:28.405Z,1008
2017-04-10T01:16:30.584Z,1008
2017-04-10T01:17:32.414Z,1008
2017-04-10T01:18:34.589Z,1008
2017-04-10T01:19:36.412Z,1008
2017-04-10T01:20:38.241Z,1008
2017-04-10T01:21:40.401Z,1007.9
2017-04-10T01:22:42.233Z,1007.9
2017-04-10T01:23:44.061Z,1007.9
2017-04-10T01:24:45.900Z,1007.9
2017-04-10T01:25:47.734Z,1007.8
2017-04-10T01:26:49.559Z,1007.8
2017-04-10T01:27:51.721Z,1007.8
2017-04-10T01:28:53.595Z,1007.7
2017-04-10T01:29:55.447Z,1007.8
2017-04-10T01:30:57.288Z,1007.8
2017-04-10T01:31:59.113Z,1007.7
2017-04-10T01:33:00.980Z,1007.7
2017-04-10T01:34:02.805Z,1007.8
2017-04-10T01:35:04.636Z,1007.6
2017-04-10T01:36:06.467Z,1007.6
2017-04-10T01:37:08.294Z,1007.6
2017-04-10T01:38:10.124Z,1007.6
2017-04-10T01:39:11.962Z,1007.6
2017-04-10T01:40:13.793Z,1007.6
2017-04-10T01:41:15.611Z,1007.5
2017-04-10T01:42:17.441Z,1007.6
2017-04-10T01:43:19.263Z,1007.6
2017-04-10T01:44:21.243Z,1007.5
2017-04-10T01:45:23.064Z,1007.5
2017-04-10T01:46:24.889Z,1007.5
2017-04-10T01:47:26.714Z,1007.5
2017-04-10T01:48:28.546Z,1007.5
2017-04-10T01:49:30.367Z,1007.5
2017-04-10T01:50:32.191Z,1007.6
2017-04-10T01:51:34.012Z,1007.4
2017-04-10T01:52:35.846Z,1007.4
2017-04-10T01:53:37.670Z,1007.4
2017-04-10T01:54:39.495Z,1007.4
2017-04-10T01:55:41.320Z,1007.3
2017-04-10T01:56:43.153Z,1007.4
2017-04-10T01:57:44.971Z,1007.4
2017-04-10T01:58:47.145Z,1007.4
2017-04-10T01:59:48.966Z,1007.4
2017-04-10T02:00:50.790Z,1007.3
2017-04-10T02:01:52.616Z,1007.3
2017-04-10T02:02:54.775Z,1007.3
2017-04-10T02:03:56.604Z,1007.2
2017-04-10T02:04:58.427Z,1007.2
2017-04-10T02:06:00.254Z,1007.2
2017-04-10T02:07:02.075Z,1007.2
2017-04-10T02:08:03.909Z,1007.2
2017-04-10T02:09:06.073Z,1007.2
2017-04-10T02:10:07.928Z,1007.1
2017-04-10T02:11:09.755Z,1007
2017-04-10T02:12:12.257Z,1007.1
2017-04-10T02:13:14.089Z,1007
2017-04-10T02:14:16.256Z,1007.1
2017-04-10T02:15:18.076Z,1007.1
2017-04-10T02:16:19.916Z,1007.1
2017-04-10T02:17:21.744Z,1007
2017-04-10T02:18:23.905Z,1007.1
2017-04-10T02:19:25.732Z,1007.1
2017-04-10T02:20:27.562Z,1006.9
2017-04-10T02:21:29.387Z,1007
2017-04-10T02:22:31.213Z,1007
2017-04-10T02:23:33.041Z,1006.9
2017-04-10T02:24:34.864Z,1006.9
2017-04-10T02:25:36.703Z,1006.9
2017-04-10T02:26:38.537Z,1006.9
2017-04-10T02:27:40.363Z,1006.9
2017-04-10T02:28:42.864Z,1006.9
2017-04-10T02:29:45.037Z,1006.8
2017-04-10T02:30:46.864Z,1006.8
2017-04-10T02:31:48.688Z,1006.8
2017-04-10T02:32:50.512Z,1006.9
2017-04-10T02:33:52.688Z,1006.7
2017-04-10T02:34:54.516Z,1006.7
2017-04-10T02:35:56.342Z,1006.7
2017-04-10T02:36:58.162Z,1006.7
2017-04-10T02:37:59.993Z,1006.6
2017-04-10T02:39:01.822Z,1006.7
2017-04-10T02:40:03.650Z,1006.6
2017-04-10T02:41:05.478Z,1006.7
2017-04-10T02:42:07.310Z,1006.6
2017-04-10T02:43:09.133Z,1006.6
2017-04-10T02:44:10.963Z,1006.6
2017-04-10T02:45:12.782Z,1006.7
2017-04-10T02:46:14.619Z,1006.5
2017-04-10T02:47:16.448Z,1006.5
2017-04-10T02:48:18.621Z,1006.5
2017-04-10T02:49:20.794Z,1006.5
2017-04-10T02:50:22.617Z,1006.5
2017-04-10T02:51:24.448Z,1006.4
2017-04-10T02:52:26.275Z,1006.5
2017-04-10T02:53:28.097Z,1006.4
2017-04-10T02:54:30.271Z,1006.4
2017-04-10T02:55:32.102Z,1006.4
2017-04-10T02:56:33.930Z,1006.4
2017-04-10T02:57:36.091Z,1006.4
2017-04-10T02:58:37.914Z,1006.4
2017-04-10T02:59:39.740Z,1006.3
2017-04-10T03:00:41.575Z,1006.4
2017-04-10T03:01:43.415Z,1006.3
2017-04-10T03:02:45.237Z,1006.3
2017-04-10T03:03:47.072Z,1006.3
2017-04-10T03:04:48.902Z,1006.3
2017-04-10T03:05:50.733Z,1006.3
2017-04-10T03:06:52.559Z,1006.3
2017-04-10T03:07:54.719Z,1006.3
2017-04-10T03:08:56.897Z,1006.3
2017-04-10T03:09:59.070Z,1006.3
2017-04-10T03:11:00.893Z,1006.4
2017-04-10T03:12:02.722Z,1006.3
2017-04-10T03:13:04.543Z,1006.2
2017-04-10T03:14:06.376Z,1006.3
2017-04-10T03:15:08.195Z,1006.2
2017-04-10T03:16:10.022Z,1006.2
2017-04-10T03:17:12.192Z,1006.2
2017-04-10T03:18:14.028Z,1006.2
2017-04-10T03:19:15.850Z,1006.1
2017-04-10T03:20:17.679Z,1006.1
2017-04-10T03:21:19.509Z,1006.1
2017-04-10T03:22:21.335Z,1006.1
2017-04-10T03:23:23.180Z,1006.1
2017-04-10T03:24:25.014Z,1006.1
2017-04-10T03:25:26.837Z,1006.1
2017-04-10T03:26:28.655Z,1006.1
2017-04-10T03:27:30.480Z,1006.1
2017-04-10T03:28:32.310Z,1006.1
2017-04-10T03:29:34.137Z,1006.1
2017-04-10T03:30:35.969Z,1006
2017-04-10T03:31:38.143Z,1005.9
2017-04-10T03:32:39.975Z,1006
2017-04-10T03:33:41.807Z,1005.9
2017-04-10T03:34:43.636Z,1005.9
2017-04-10T03:35:45.459Z,1005.8
2017-04-10T03:36:47.290Z,1005.8
2017-04-10T03:37:49.458Z,1005.8
2017-04-10T03:38:51.287Z,1005.7
2017-04-10T03:39:53.119Z,1005.7
2017-04-10T03:40:54.954Z,1005.7
2017-04-10T03:41:56.772Z,1005.7
2017-04-10T03:42:58.608Z,1005.7
2017-04-10T03:44:00.776Z,1005.7
2017-04-10T03:45:02.608Z,1005.7
2017-04-10T03:46:04.434Z,1005.6
2017-04-10T03:47:06.263Z,1005.7
2017-04-10T03:48:08.415Z,1005.7
2017-04-10T03:49:10.241Z,1005.7
2017-04-10T03:50:12.400Z,1005.8
2017-04-10T03:51:14.232Z,1005.7
2017-04-10T03:52:16.051Z,1005.7
2017-04-10T03:53:17.881Z,1005.7
2017-04-10T03:54:19.700Z,1005.7
2017-04-10T03:55:21.542Z,1005.7
2017-04-10T03:56:23.369Z,1005.7
2017-04-10T03:57:25.197Z,1005.6
2017-04-10T03:58:27.018Z,1005.6
2017-04-10T03:59:28.851Z,1005.7
2017-04-10T04:00:30.707Z,1005.7
2017-04-10T04:01:32.882Z,1005.6
2017-04-10T04:02:34.701Z,1005.7
2017-04-10T04:03:36.553Z,1005.6
2017-04-10T04:04:38.376Z,1005.6
2017-04-10T04:05:40.198Z,1005.6
2017-04-10T04:06:42.021Z,1005.5
2017-04-10T04:07:43.842Z,1005.5
2017-04-10T04:08:45.663Z,1005.5
2017-04-10T04:09:47.827Z,1005.4
2017-04-10T04:10:49.652Z,1005.5
2017-04-10T04:11:51.838Z,1005.5
2017-04-10T04:12:53.658Z,1005.5
2017-04-10T04:13:55.486Z,1005.4
2017-04-10T04:14:57.649Z,1005.3
2017-04-10T04:15:59.482Z,1005.3
2017-04-10T04:17:01.348Z,1005.3
2017-04-10T04:18:03.170Z,1005.3
2017-04-10T04:19:04.995Z,1005.3
2017-04-10T04:20:06.822Z,1005.4
2017-04-10T04:21:08.653Z,1005.3
2017-04-10T04:22:10.476Z,1005.5
2017-04-10T04:23:12.299Z,1005.3
2017-04-10T04:24:14.129Z,1005.3
2017-04-10T04:25:15.987Z,1005.4
2017-04-10T04:26:17.810Z,1005.4
2017-04-10T04:27:19.981Z,1005.2
2017-04-10T04:28:21.805Z,1005.4
2017-04-10T04:29:23.642Z,1005.4
2017-04-10T04:30:25.462Z,1005.3
2017-04-10T04:31:27.286Z,1005.3
2017-04-10T04:32:29.112Z,1005.3
2017-04-10T04:33:31.277Z,1005.2
2017-04-10T04:34:33.104Z,1005.2
2017-04-10T04:35:34.926Z,1005.2
2017-04-10T04:36:36.752Z,1005.1
2017-04-10T04:37:38.586Z,1005.1
2017-04-10T04:38:40.412Z,1005.1
2017-04-10T04:39:42.581Z,1005.1
2017-04-10T04:40:44.405Z,1005.1
2017-04-10T04:41:46.239Z,1005.1
2017-04-10T04:42:48.064Z,1005.1
2017-04-10T04:43:49.888Z,1005.1
2017-04-10T04:44:51.812Z,1005.1
2017-04-10T04:45:53.641Z,1005.1
2017-04-10T04:46:55.467Z,1005.1
2017-04-10T04:47:57.298Z,1005
2017-04-10T04:48:59.497Z,1005
2017-04-10T04:50:01.326Z,1005
2017-04-10T04:51:03.807Z,1005
2017-04-10T04:52:07.425Z,1005
2017-04-10T04:53:09.776Z,1005
2017-04-10T04:54:13.674Z,1004.9
2017-04-10T04:55:15.505Z,1004.9
2017-04-10T04:56:17.326Z,1004.9
2017-04-10T04:57:19.154Z,1004.9
2017-04-10T04:58:20.990Z,1004.9
2017-04-10T04:59:22.810Z,1004.8
2017-04-10T05:00:24.980Z,1004.8
2017-04-10T05:01:26.802Z,1004.8
2017-04-10T05:02:28.641Z,1004.8
2017-04-10T05:03:30.466Z,1004.8
2017-04-10T05:04:32.291Z,1004.8
2017-04-10T05:05:34.125Z,1004.8
2017-04-10T05:06:35.943Z,1004.8
2017-04-10T05:07:37.772Z,1004.8
2017-04-10T05:08:40.283Z,1004.8
2017-04-10T05:09:42.102Z,1004.8
2017-04-10T05:10:44.281Z,1004.8
2017-04-10T05:11:46.103Z,1004.8
2017-04-10T05:12:47.931Z,1004.9
2017-04-10T05:13:49.769Z,1004.9
2017-04-10T05:14:51.948Z,1004.9
2017-04-10T05:15:53.775Z,1004.9
2017-04-10T05:16:55.606Z,1004.9
2017-04-10T05:17:57.470Z,1005
2017-04-10T05:18:59.318Z,1005
2017-04-10T05:20:15.980Z,1005
2017-04-10T05:21:51.715Z,1005
2017-04-10T05:22:53.538Z,1005
2017-04-10T05:23:55.395Z,1005
2017-04-10T05:24:57.228Z,1004.9
2017-04-10T05:25:59.059Z,1005
2017-04-10T05:27:00.878Z,1004.9
2017-04-10T05:28:02.714Z,1004.9
2017-04-10T05:29:04.534Z,1004.9
2017-04-10T05:30:06.362Z,1004.9
2017-04-10T05:31:08.541Z,1004.8
2017-04-10T05:32:10.905Z,1004.9
2017-04-10T05:33:13.403Z,1005
2017-04-10T05:34:15.234Z,1004.8
2017-04-10T05:35:17.070Z,1004.8
2017-04-10T05:36:18.890Z,1004.9
2017-04-10T05:37:20.718Z,1004.8
2017-04-10T05:38:22.543Z,1004.8
2017-04-10T05:39:24.364Z,1004.8
2017-04-10T05:40:26.547Z,1004.8
2017-04-10T05:41:28.379Z,1004.9
2017-04-10T05:42:30.227Z,1004.8
2017-04-10T05:43:32.079Z,1004.8
2017-04-10T05:44:33.922Z,1004.8
2017-04-10T05:45:36.123Z,1004.9
2017-04-10T05:46:37.969Z,1004.9
2017-04-10T05:47:39.821Z,1004.9
2017-04-10T05:48:41.658Z,1004.9
2017-04-10T05:49:43.488Z,1004.9
2017-04-10T05:50:45.341Z,1004.9
2017-04-10T05:51:47.772Z,1004.9
2017-04-10T05:52:50.295Z,1004.9
2017-04-10T05:53:52.134Z,1004.9
2017-04-10T05:54:53.970Z,1004.8
2017-04-10T05:55:55.817Z,1004.9
2017-04-10T05:56:58.060Z,1004.9
2017-04-10T05:57:59.903Z,1004.9
2017-04-10T05:59:01.750Z,1005
2017-04-10T06:00:03.957Z,1004.9
2017-04-10T06:01:05.788Z,1005
2017-04-10T06:02:07.624Z,1004.9
2017-04-10T06:03:09.473Z,1004.9
2017-04-10T06:04:11.318Z,1005
2017-04-10T06:05:13.149Z,1004.9
2017-04-10T06:06:15.045Z,1004.9
2017-04-10T06:07:16.935Z,1004.9
2017-04-10T06:08:18.781Z,1004.9
2017-04-10T06:09:20.613Z,1004.9
2017-04-10T06:10:22.440Z,1004.9
2017-04-10T06:11:24.263Z,1004.9
2017-04-10T06:12:26.106Z,1004.8
2017-04-10T06:13:28.273Z,1004.9
2017-04-10T06:14:30.106Z,1004.9
2017-04-10T06:15:31.969Z,1004.9
2017-04-10T06:16:34.145Z,1004.8
2017-04-10T06:17:36.034Z,1004.8
2017-04-10T06:18:37.870Z,1004.9
2017-04-10T06:19:39.717Z,1004.8
2017-04-10T06:20:41.570Z,1004.8
2017-04-10T06:21:43.739Z,1004.7
2017-04-10T06:22:45.584Z,1004.8
2017-04-10T06:23:47.446Z,1004.8
2017-04-10T06:24:49.731Z,1004.8
2017-04-10T06:25:51.551Z,1004.7
2017-04-10T06:26:53.484Z,1004.7
2017-04-10T06:27:55.323Z,1004.7
2017-04-10T06:28:57.221Z,1004.7
2017-04-10T06:29:59.058Z,1004.7
2017-04-10T06:31:00.893Z,1004.8
2017-04-10T06:32:02.719Z,1004.7
2017-04-10T06:33:04.554Z,1004.7
2017-04-10T06:34:06.446Z,1004.8
2017-04-10T06:35:08.277Z,1004.8
2017-04-10T06:36:10.108Z,1004.7
2017-04-10T06:37:12.081Z,1004.8
2017-04-10T06:38:13.902Z,1004.8
2017-04-10T06:39:15.736Z,1004.9
2017-04-10T06:40:17.571Z,1004.9
2017-04-10T06:41:19.399Z,1004.8
2017-04-10T06:42:21.295Z,1004.9
2017-04-10T06:43:23.127Z,1004.9
2017-04-10T06:44:24.951Z,1004.8
2017-04-10T06:45:26.813Z,1004.9
2017-04-10T06:46:28.645Z,1005
2017-04-10T06:47:30.477Z,1005
2017-04-10T06:48:32.362Z,1005
2017-04-10T06:49:34.546Z,1004.9
2017-04-10T06:50:36.373Z,1005
2017-04-10T06:51:38.543Z,1004.9
2017-04-10T06:52:40.378Z,1005
2017-04-10T06:53:42.195Z,1005
2017-04-10T06:54:44.029Z,1004.9
2017-04-10T06:55:45.858Z,1004.9
2017-04-10T06:56:47.687Z,1004.9
2017-04-10T06:57:49.655Z,1005
2017-04-10T06:58:51.491Z,1004.9
2017-04-10T06:59:53.336Z,1004.9
2017-04-10T07:00:55.273Z,1004.9
2017-04-10T07:01:57.486Z,1004.9
2017-04-10T07:02:59.314Z,1005
2017-04-10T07:04:01.142Z,1005
2017-04-10T07:05:02.981Z,1004.9
2017-04-10T07:06:05.025Z,1004.9
2017-04-10T07:07:06.856Z,1005
2017-04-10T07:08:08.863Z,1005.1
2017-04-10T07:09:10.688Z,1005.1
2017-04-10T07:10:12.520Z,1005.1
2017-04-10T07:11:14.350Z,1005.1
2017-04-10T07:12:16.308Z,1005.1
2017-04-10T07:13:18.136Z,1005.1
2017-04-10T07:14:20.181Z,1005.1
2017-04-10T07:15:22.018Z,1005.3
2017-04-10T07:16:23.917Z,1005.2
2017-04-10T07:17:25.747Z,1005.1
2017-04-10T07:18:27.584Z,1005.1
2017-04-10T07:19:29.581Z,1005.2
2017-04-10T07:20:31.411Z,1005.3
2017-04-10T07:21:33.258Z,1005.3
2017-04-10T07:22:35.081Z,1005.3
2017-04-10T07:23:36.925Z,1005.4
2017-04-10T07:24:38.752Z,1005.2
2017-04-10T07:25:40.582Z,1005.3
2017-04-10T07:26:42.410Z,1005.3
2017-04-10T07:27:44.249Z,1005.4
2017-04-10T07:28:46.083Z,1005.4
2017-04-10T07:29:47.960Z,1005.4
2017-04-10T07:30:49.798Z,1005.5
2017-04-10T07:31:51.631Z,1005.3
2017-04-10T07:32:53.467Z,1005.4
2017-04-10T07:33:55.304Z,1005.4
2017-04-10T07:34:57.127Z,1005.4
2017-04-10T07:35:59.001Z,1005.4
2017-04-10T07:37:00.841Z,1005.5
2017-04-10T07:38:02.677Z,1005.4
2017-04-10T07:39:04.507Z,1005.4
2017-04-10T07:40:06.342Z,1005.4
2017-04-10T07:41:08.544Z,1005.4
2017-04-10T07:42:10.379Z,1005.3
2017-04-10T07:43:12.216Z,1005.4
2017-04-10T07:44:14.050Z,1005.4
2017-04-10T07:45:16.247Z,1005.4
2017-04-10T07:46:18.086Z,1005.4
2017-04-10T07:47:19.923Z,1005.4
2017-04-10T07:48:21.756Z,1005.5
2017-04-10T07:49:23.593Z,1005.4
2017-04-10T07:50:25.428Z,1005.5
2017-04-10T07:51:27.261Z,1005.5
2017-04-10T07:52:29.781Z,1005.5
2017-04-10T07:53:31.608Z,1005.5
2017-04-10T07:54:33.662Z,1005.6
2017-04-10T07:55:35.499Z,1005.5
2017-04-10T07:56:37.340Z,1005.5
2017-04-10T07:57:39.172Z,1005.4
2017-04-10T07:58:41.007Z,1005.6
2017-04-10T07:59:42.834Z,1005.6
2017-04-10T08:00:44.687Z,1005.6
2017-04-10T08:01:46.522Z,1005.7
2017-04-10T08:02:48.358Z,1005.7
2017-04-10T08:03:50.186Z,1005.7
2017-04-10T08:04:52.040Z,1005.7
2017-04-10T08:05:53.868Z,1005.7
2017-04-10T08:06:55.698Z,1005.7
2017-04-10T08:07:57.525Z,1005.7
2017-04-10T08:08:59.360Z,1005.8
2017-04-10T08:10:01.201Z,1005.8
2017-04-10T08:11:03.032Z,1005.8
2017-04-10T08:12:04.866Z,1005.7
2017-04-10T08:13:06.702Z,1005.9
2017-04-10T08:14:08.537Z,1005.9
2017-04-10T08:15:10.633Z,1005.9
2017-04-10T08:16:12.460Z,1005.9
2017-04-10T08:17:14.293Z,1006
2017-04-10T08:18:16.129Z,1006.1
2017-04-10T08:19:17.965Z,1006.1
2017-04-10T08:20:19.798Z,1006.2
2017-04-10T08:21:21.628Z,1005.9
2017-04-10T08:22:23.461Z,1006.2
2017-04-10T08:23:25.632Z,1006.3
2017-04-10T08:24:27.469Z,1006.2
2017-04-10T08:25:29.303Z,1006.3
2017-04-10T08:26:31.444Z,1006.3
2017-04-10T08:27:33.283Z,1006.3
2017-04-10T08:28:35.112Z,1006.4
2017-04-10T08:29:36.941Z,1006.3
2017-04-10T08:30:38.768Z,1006.5
2017-04-10T08:31:40.616Z,1006.6
2017-04-10T08:32:42.481Z,1006.5
2017-04-10T08:33:44.319Z,1006.6
2017-04-10T08:34:46.154Z,1006.2
2017-04-10T08:35:47.981Z,1006.5
2017-04-10T08:36:49.818Z,1006.5
2017-04-10T08:37:51.656Z,1006.5
2017-04-10T08:38:53.494Z,1006.5
2017-04-10T08:39:55.670Z,1006.5
2017-04-10T08:40:57.537Z,1006.6
2017-04-10T08:41:59.364Z,1006.6
2017-04-10T08:43:01.218Z,1006.4
2017-04-10T08:44:03.055Z,1006.7
2017-04-10T08:45:04.882Z,1006.6
2017-04-10T08:46:06.721Z,1006.6
2017-04-10T08:47:08.553Z,1006.6
2017-04-10T08:48:10.397Z,1006.6
2017-04-10T08:49:12.269Z,1006.8
2017-04-10T08:50:14.106Z,1006.8
2017-04-10T08:51:16.257Z,1006.7
2017-04-10T08:52:18.098Z,1006.7
2017-04-10T08:53:19.929Z,1006.8
2017-04-10T08:54:21.751Z,1006.8
2017-04-10T08:55:23.860Z,1006.8
2017-04-10T08:56:25.692Z,1006.7
2017-04-10T08:57:27.527Z,1006.8
2017-04-10T08:58:29.358Z,1006.8
2017-04-10T08:59:31.195Z,1006.7
2017-04-10T09:00:33.031Z,1006.8
2017-04-10T09:01:34.875Z,1006.9
2017-04-10T09:02:36.702Z,1006.9
2017-04-10T09:03:38.541Z,1006.9
2017-04-10T09:04:40.388Z,1006.9
2017-04-10T09:05:42.232Z,1006.9
2017-04-10T09:06:44.343Z,1006.9
2017-04-10T09:07:46.177Z,1006.9
2017-04-10T09:08:48.011Z,1006.9
2017-04-10T09:09:49.840Z,1006.9
2017-04-10T09:10:51.670Z,1007.1
2017-04-10T09:11:53.505Z,1007
2017-04-10T09:12:55.337Z,1006.9
2017-04-10T09:13:57.175Z,1007.1
2017-04-10T09:14:59.034Z,1007.1
2017-04-10T09:16:00.860Z,1007.2
2017-04-10T09:17:02.689Z,1007.1
2017-04-10T09:18:04.855Z,1007.2
2017-04-10T09:19:07.027Z,1007.2
2017-04-10T09:20:08.860Z,1007.3
2017-04-10T09:21:10.704Z,1007.3
2017-04-10T09:22:12.533Z,1007.2
2017-04-10T09:23:14.371Z,1007.4
2017-04-10T09:24:16.560Z,1007.3
2017-04-10T09:25:18.398Z,1007.4
2017-04-10T09:26:20.577Z,1007.4
2017-04-10T09:27:22.400Z,1007.4
2017-04-10T09:28:24.227Z,1007.4
2017-04-10T09:29:26.404Z,1007.3
2017-04-10T09:30:28.233Z,1007.3
2017-04-10T09:31:30.063Z,1007.4
2017-04-10T09:32:32.447Z,1007.4
2017-04-10T09:33:34.288Z,1007.5
2017-04-10T09:34:36.123Z,1007.4
2017-04-10T09:35:37.953Z,1007.6
2017-04-10T09:36:39.783Z,1007.3
2017-04-10T09:37:41.610Z,1007.5
2017-04-10T09:38:43.487Z,1007.6
2017-04-10T09:39:45.313Z,1007.5
2017-04-10T09:40:47.149Z,1007.6
2017-04-10T09:41:48.977Z,1007.7
2017-04-10T09:42:50.817Z,1007.6
2017-04-10T09:43:52.645Z,1007.6
2017-04-10T09:44:54.479Z,1007.6
2017-04-10T09:45:56.308Z,1007.6
2017-04-10T09:46:58.155Z,1007.7
2017-04-10T09:47:59.989Z,1007.7
2017-04-10T09:49:01.815Z,1007.7
2017-04-10T09:50:03.653Z,1007.7
2017-04-10T09:51:05.483Z,1007.7
2017-04-10T09:52:07.318Z,1007.7
2017-04-10T09:53:09.171Z,1007.8
2017-04-10T09:54:11.038Z,1007.8
2017-04-10T09:55:13.212Z,1007.7
2017-04-10T09:56:15.045Z,1007.8
2017-04-10T09:57:16.878Z,1007.8
2017-04-10T09:58:18.717Z,1007.7
2017-04-10T09:59:20.553Z,1007.9
2017-04-10T10:00:22.392Z,1007.8
2017-04-10T10:01:24.218Z,1007.8
2017-04-10T10:02:26.051Z,1008
2017-04-10T10:03:27.886Z,1007.9
2017-04-10T10:04:29.718Z,1007.9
2017-04-10T10:05:31.549Z,1008
2017-04-10T10:06:33.382Z,1007.9
2017-04-10T10:07:35.545Z,1008
2017-04-10T10:08:37.365Z,1008.1
2017-04-10T10:09:39.189Z,1008.1
2017-04-10T10:10:41.017Z,1008
2017-04-10T10:11:42.842Z,1008.1
2017-04-10T10:12:44.680Z,1008
2017-04-10T10:13:46.513Z,1008
2017-04-10T10:14:48.348Z,1008
2017-04-10T10:15:50.179Z,1008.1
2017-04-10T10:16:52.001Z,1008.1
2017-04-10T10:17:53.833Z,1008.1
2017-04-10T10:18:55.658Z,1008
2017-04-10T10:19:57.498Z,1008
2017-04-10T10:20:59.331Z,1008.1
2017-04-10T10:22:01.167Z,1008
2017-04-10T10:23:03.000Z,1008
2017-04-10T10:24:04.839Z,1008
2017-04-10T10:25:06.663Z,1008
2017-04-10T10:26:08.844Z,1008
2017-04-10T10:27:10.674Z,1008
2017-04-10T10:28:12.514Z,1008.1
2017-04-10T10:29:14.345Z,1008.1
2017-04-10T10:30:16.167Z,1008
2017-04-10T10:31:17.993Z,1008.1
2017-04-10T10:32:19.821Z,1008.1
2017-04-10T10:33:21.651Z,1008.1
2017-04-10T10:34:23.518Z,1008.1
2017-04-10T10:35:25.354Z,1008.2
2017-04-10T10:36:27.202Z,1008.2
2017-04-10T10:37:29.032Z,1008.1
2017-04-10T10:38:30.867Z,1008.1
2017-04-10T10:39:32.694Z,1008.1
2017-04-10T10:40:34.517Z,1008.2
2017-04-10T10:41:36.357Z,1008.2
2017-04-10T10:42:38.191Z,1008.3
2017-04-10T10:43:40.017Z,1008.2
2017-04-10T10:44:41.855Z,1008.3
2017-04-10T10:45:43.728Z,1008.2
2017-04-10T10:46:45.556Z,1008.3
2017-04-10T10:47:47.392Z,1008.3
2017-04-10T10:48:49.222Z,1008.3
2017-04-10T10:49:51.054Z,1008.2
2017-04-10T10:50:52.896Z,1008.3
2017-04-10T10:51:54.728Z,1008.4
2017-04-10T10:52:56.560Z,1008.4
2017-04-10T10:53:58.389Z,1008.4
2017-04-10T10:55:00.235Z,1008.4
2017-04-10T10:56:02.065Z,1008.4
2017-04-10T10:57:03.902Z,1008.5
2017-04-10T10:58:05.726Z,1008.4
2017-04-10T10:59:07.555Z,1008.4
2017-04-10T11:00:09.378Z,1008.4
2017-04-10T11:01:11.216Z,1008.3
2017-04-10T11:02:13.045Z,1008.4
2017-04-10T11:03:14.877Z,1008.5
2017-04-10T11:04:16.709Z,1008.6
2017-04-10T11:05:18.537Z,1008.4
2017-04-10T11:06:20.374Z,1008.5
2017-04-10T11:07:22.210Z,1008.4
2017-04-10T11:08:24.038Z,1008.4
2017-04-10T11:09:25.884Z,1008.3
2017-04-10T11:10:27.712Z,1008.3
2017-04-10T11:11:29.565Z,1008.3
2017-04-10T11:12:31.742Z,1008.4
2017-04-10T11:13:33.568Z,1008.3
2017-04-10T11:14:35.399Z,1008.4
2017-04-10T11:15:37.232Z,1008.4
2017-04-10T11:16:39.069Z,1008.3
2017-04-10T11:17:40.896Z,1008.3
2017-04-10T11:18:42.741Z,1008.4
2017-04-10T11:19:44.600Z,1008.4
2017-04-10T11:20:46.428Z,1008.4
2017-04-10T11:21:48.601Z,1008.4
2017-04-10T11:22:50.450Z,1008.5
2017-04-10T11:23:52.276Z,1008.3
2017-04-10T11:24:54.108Z,1008.4
2017-04-10T11:25:55.943Z,1008.4
2017-04-10T11:26:58.093Z,1008.5
2017-04-10T11:28:00.203Z,1008.5
2017-04-10T11:29:02.046Z,1008.5
2017-04-10T11:30:03.875Z,1008.5
2017-04-10T11:31:05.720Z,1008.5
2017-04-10T11:32:07.552Z,1008.5
2017-04-10T11:33:09.412Z,1008.5
2017-04-10T11:34:11.248Z,1008.5
2017-04-10T11:35:13.118Z,1008.6
2017-04-10T11:36:14.950Z,1008.6
2017-04-10T11:37:16.797Z,1008.6
2017-04-10T11:38:18.968Z,1008.6
2017-04-10T11:39:20.794Z,1008.6
2017-04-10T11:40:22.969Z,1008.6
2017-04-10T11:41:24.818Z,1008.7
2017-04-10T11:42:26.652Z,1008.6
2017-04-10T11:43:28.487Z,1008.6
2017-04-10T11:44:30.672Z,1008.6
2017-04-10T11:45:32.517Z,1008.6
2017-04-10T11:46:34.355Z,1008.6
2017-04-10T11:47:36.192Z,1008.7
2017-04-10T11:48:38.711Z,1008.7
2017-04-10T11:49:40.536Z,1008.7
2017-04-10T11:50:42.386Z,1008.7
2017-04-10T11:51:44.219Z,1008.7
2017-04-10T11:52:46.057Z,1008.7
2017-04-10T11:53:47.886Z,1008.7
2017-04-10T11:54:49.740Z,1008.7
2017-04-10T11:55:51.575Z,1008.7
2017-04-10T11:56:53.415Z,1008.7
2017-04-10T11:57:55.250Z,1008.7
2017-04-10T11:58:57.093Z,1008.6
2017-04-10T11:59:58.926Z,1008.8
2017-04-10T12:01:00.751Z,1008.9
2017-04-10T12:02:02.591Z,1008.9
2017-04-10T12:03:04.434Z,1008.9
2017-04-10T12:04:06.624Z,1008.9
2017-04-10T12:05:08.456Z,1008.9
2017-04-10T12:06:10.290Z,1008.9
2017-04-10T12:07:12.128Z,1008.8
2017-04-10T12:08:13.970Z,1008.8
2017-04-10T12:09:15.799Z,1008.8
2017-04-10T12:10:17.643Z,1008.8
2017-04-10T12:11:19.478Z,1008.8
2017-04-10T12:12:21.336Z,1008.8
2017-04-10T12:13:23.165Z,1008.9
2017-04-10T12:14:25.021Z,1008.8
2017-04-10T12:15:26.841Z,1008.9
2017-04-10T12:16:28.675Z,1008.9
2017-04-10T12:17:30.521Z,1008.9
2017-04-10T12:18:32.715Z,1008.9
2017-04-10T12:19:34.557Z,1009
2017-04-10T12:20:36.390Z,1009
2017-04-10T12:21:38.235Z,1009
2017-04-10T12:22:40.061Z,1009
2017-04-10T12:23:41.914Z,1009.1
2017-04-10T12:24:43.752Z,1009.1
2017-04-10T12:25:45.647Z,1009
2017-04-10T12:26:47.508Z,1009
2017-04-10T12:27:49.351Z,1008.9
2017-04-10T12:28:51.199Z,1009
2017-04-10T12:29:53.034Z,1009
2017-04-10T12:30:55.200Z,1009
2017-04-10T12:31:57.047Z,1009
2017-04-10T12:32:59.218Z,1009
2017-04-10T12:34:01.066Z,1009
2017-04-10T12:35:03.250Z,1008.9
2017-04-10T12:36:05.108Z,1008.8
2017-04-10T12:37:06.939Z,1008.9
2017-04-10T12:38:08.825Z,1009
2017-04-10T12:39:10.998Z,1009
2017-04-10T12:40:12.840Z,1008.9
2017-04-10T12:41:14.683Z,1009.1
2017-04-10T12:42:16.514Z,1009.1
2017-04-10T12:43:18.355Z,1009
2017-04-10T12:44:20.521Z,1009
2017-04-10T12:45:22.376Z,1009
2017-04-10T12:46:24.214Z,1009
2017-04-10T12:47:26.057Z,1009.1
2017-04-10T12:48:27.901Z,1009.1
2017-04-10T12:49:29.755Z,1009.1
2017-04-10T12:50:31.592Z,1009
2017-04-10T12:51:33.431Z,1009.1
2017-04-10T12:52:35.291Z,1009
2017-04-10T12:53:37.143Z,1009.2
2017-04-10T12:54:38.989Z,1009.1
2017-04-10T12:55:40.846Z,1009.1
2017-04-10T12:56:42.681Z,1009.1
2017-04-10T12:57:44.534Z,1009.1